TAF Text Data
IDs:
Format:
Raw Decoded Include METAR

Data at: 0711 UTC 23 Oct 2018

KTUS 230653Z 19003KT 10SM CLR 21/16 A2994 RMK AO2 SLP099 T02060161 402940172

KTUS 230520Z 2306/2406 13006KT P6SM SCT080 BKN200
  FM231900 15009KT P6SM VCTS SCT060CB BKN120
  FM232100 33008KT P6SM VCTS SCT060CB OVC120
  FM240200 25008KT P6SM SCT070 BKN200